weather.gov     
National Weather Service

Terminal Aerodrome Forecast
NWS Homepage
This page is being discontinued on March 12, 2014.
The same data is available at this site. Please update your bookmarks.
Thank you, and we apologize for the inconvenience.
Please send an email to SR-SRH.Webmaster@noaa.gov with any concerns.


Current Version
Previous Version:    01  02  03  04  05  06  07  08  09  10  11  12  13  14  15  16  17  18  19  20  21  22  23  24  25  26  27  28  29  30  
   31  32  33  34  35  36  37  38  39  
[Printable]
251
FTUS44 KHGX 171720
TAFCLL
TAF
KCLL 171720Z 1718/1818 15005KT P6SM VCSH SCT030 SCT250
     FM171900 16008KT P6SM VCTS SCT040CB SCT100 BKN250
      TEMPO 1721/1801 VRB05G20KT TSRA BKN035CB OVC250
     FM180100 14006KT P6SM FEW040 BKN250
     FM180900 15004KT P6SM VCTS SCT015CB BKN040 BKN250
      TEMPO 1809/1813 VRB15KT 2SM +TSRA SCT008 BKN015CB
     FM181300 12006KT P6SM VCTS BKN025CB BKN250=


251
FTUS44 KHGX 171720
TAFCLL
TAF
KCLL 171720Z 1718/1818 15005KT P6SM VCSH SCT030 SCT250
     FM171900 16008KT P6SM VCTS SCT040CB SCT100 BKN250
      TEMPO 1721/1801 VRB05G20KT TSRA BKN035CB OVC250
     FM180100 14006KT P6SM FEW040 BKN250
     FM180900 15004KT P6SM VCTS SCT015CB BKN040 BKN250
      TEMPO 1809/1813 VRB15KT 2SM +TSRA SCT008 BKN015CB
     FM181300 12006KT P6SM VCTS BKN025CB BKN250=




U.S. Dept. of Commerce
NOAA National Weather Service
1325 East West Highway
Silver Spring, MD 20910
E-mail: w-nws.webmaster@noaa.gov
Page last modified: May 16, 2007
NATIONAL WEATHER SERVICE: for Safety, for Work, for Fun - FOR LIFE